Madares — SVA6080 — position and weather

sailwx.info

Track history (hours):
 
Tides and Currents Weather Stations Pressure Air Temp Water Temp Dewpoint Dewpoint Depression Visibility Wind Speed Wind Dir Waves Ship Positions

Madares

Last reported at 2018-Feb-22 00:28 UTC. Time now 2018-Feb-25 14:04 UTC.
Position N 37°57' E 024°14'.

Length 38 m; draft 5.4 m.

Type: Cargo ship. MMSI: 239863100.

Date/timePositionNaut miles runAvg speedWind from/ knotsBaromVisibWave heightAir tempDewpointWater temp
2018-Feb-22 00:28N 37°57' E 024°14'7 8.9
2018-Feb-21 23:41N 38°03' E 024°10'2 9.2
2018-Feb-21 23:28N 38°05' E 024°09'4 9.3
2018-Feb-21 23:01N 38°09' E 024°09'  
2018-Feb-19 07:36N 38°01' E 024°10'  
2018-Feb-15 10:37N 37°12' E 025°50'1 7.6
2018-Feb-15 10:30N 37°13' E 025°49'4 7.3
2018-Feb-15 10:00N 37°16' E 025°47'4 7.1
2018-Feb-15 09:30N 37°19' E 025°45'7 7.0
2018-Feb-15 08:33N 37°24' E 025°40'0 6.9
2018-Feb-15 08:30N 37°25' E 025°39'3 6.9
2018-Feb-15 08:00N 37°27' E 025°37'4 7.5
2018-Feb-15 07:30N 37°30' E 025°34'4 8.7
2018-Feb-15 07:00N 37°34' E 025°31'4 9.0
2018-Feb-15 06:30N 37°37' E 025°27'5 9.1
2018-Feb-15 06:00N 37°40' E 025°23'5 9.1
2018-Feb-15 05:29N 37°43' E 025°18'4 8.8
2018-Feb-15 05:00N 37°46' E 025°14'4 8.6
2018-Feb-15 04:30N 37°49' E 025°11'6 8.8
2018-Feb-15 03:50N 37°54' E 025°06'  
2018-Feb-12 13:12N 37°41' E 024°51'9 9.0
2018-Feb-12 12:14N 37°35' E 024°58'2 8.6
2018-Feb-12 12:00N 37°33' E 024°60'4 8.7
2018-Feb-12 11:30N 37°30' E 025°04'5 9.1
2018-Feb-12 11:00N 37°27' E 025°08'4 9.1
2018-Feb-12 10:30N 37°23' E 025°11'5 9.0
2018-Feb-12 10:00N 37°19' E 025°14'4 8.8
2018-Feb-12 09:30N 37°16' E 025°17'4 8.8
2018-Feb-12 09:00N 37°11' E 025°18'5 9.0
2018-Feb-12 08:30N 37°07' E 025°19'5 9.3
2018-Feb-12 08:00N 37°02' E 025°18'  
Track history (hours):
 
Tides and Currents Weather Stations Pressure Air Temp Water Temp Dewpoint Dewpoint Depression Visibility Wind Speed Wind Dir Waves Ship Positions

Madares

Last reported at 2018-Feb-22 00:28 UTC. Time now 2018-Feb-25 14:04 UTC.
Position N 37°57' E 024°14'.

Length 38 m; draft 5.4 m.

Type: Cargo ship. MMSI: 239863100.

Date/timePositionNaut miles runAvg speedWind from/ knotsBaromVisibWave heightAir tempDewpointWater temp
2018-Feb-22 00:28N 37°57' E 024°14'7 8.9
2018-Feb-21 23:41N 38°03' E 024°10'2 9.2
2018-Feb-21 23:28N 38°05' E 024°09'4 9.3
2018-Feb-21 23:01N 38°09' E 024°09'  
2018-Feb-19 07:36N 38°01' E 024°10'  
2018-Feb-15 10:37N 37°12' E 025°50'1 7.6
2018-Feb-15 10:30N 37°13' E 025°49'4 7.3
2018-Feb-15 10:00N 37°16' E 025°47'4 7.1
2018-Feb-15 09:30N 37°19' E 025°45'7 7.0
2018-Feb-15 08:33N 37°24' E 025°40'0 6.9
2018-Feb-15 08:30N 37°25' E 025°39'3 6.9
2018-Feb-15 08:00N 37°27' E 025°37'4 7.5
2018-Feb-15 07:30N 37°30' E 025°34'4 8.7
2018-Feb-15 07:00N 37°34' E 025°31'4 9.0
2018-Feb-15 06:30N 37°37' E 025°27'5 9.1
2018-Feb-15 06:00N 37°40' E 025°23'5 9.1
2018-Feb-15 05:29N 37°43' E 025°18'4 8.8
2018-Feb-15 05:00N 37°46' E 025°14'4 8.6
2018-Feb-15 04:30N 37°49' E 025°11'6 8.8
2018-Feb-15 03:50N 37°54' E 025°06'  
2018-Feb-12 13:12N 37°41' E 024°51'9 9.0
2018-Feb-12 12:14N 37°35' E 024°58'2 8.6
2018-Feb-12 12:00N 37°33' E 024°60'4 8.7
2018-Feb-12 11:30N 37°30' E 025°04'5 9.1
2018-Feb-12 11:00N 37°27' E 025°08'4 9.1
2018-Feb-12 10:30N 37°23' E 025°11'5 9.0
2018-Feb-12 10:00N 37°19' E 025°14'4 8.8
2018-Feb-12 09:30N 37°16' E 025°17'4 8.8
2018-Feb-12 09:00N 37°11' E 025°18'5 9.0
2018-Feb-12 08:30N 37°07' E 025°19'5 9.3
2018-Feb-12 08:00N 37°02' E 025°18'  

Dump ship's entire track history